sensor_id;sensor_type;location;lat;lon;timestamp;temperature;humidity
35692;DHT22;26978;44.830;-0.674;2023-04-25T00:02:17;12.20;99.90
35692;DHT22;26978;44.830;-0.674;2023-04-25T00:04:43;12.20;99.90
35692;DHT22;26978;44.830;-0.674;2023-04-25T00:07:09;12.20;99.90
35692;DHT22;26978;44.830;-0.674;2023-04-25T00:09:34;12.20;99.90
35692;DHT22;26978;44.830;-0.674;2023-04-25T00:12:00;12.20;99.90
35692;DHT22;26978;44.830;-0.674;2023-04-25T00:14:27;12.20;99.90
35692;DHT22;26978;44.830;-0.674;2023-04-25T00:16:53;12.30;99.90
35692;DHT22;26978;44.830;-0.674;2023-04-25T00:19:19;12.30;99.90
35692;DHT22;26978;44.830;-0.674;2023-04-25T00:21:45;12.20;99.90
35692;DHT22;26978;44.830;-0.674;2023-04-25T00:24:12;12.20;99.90
35692;DHT22;26978;44.830;-0.674;2023-04-25T00:26:38;12.10;99.90
35692;DHT22;26978;44.830;-0.674;2023-04-25T00:29:03;12.00;99.90
35692;DHT22;26978;44.830;-0.674;2023-04-25T00:31:29;12.00;99.90
35692;DHT22;26978;44.830;-0.674;2023-04-25T00:33:55;11.90;99.90
35692;DHT22;26978;44.830;-0.674;2023-04-25T00:36:21;11.90;99.90
35692;DHT22;26978;44.830;-0.674;2023-04-25T00:38:47;11.90;99.90
35692;DHT22;26978;44.830;-0.674;2023-04-25T00:41:12;11.90;99.90
35692;DHT22;26978;44.830;-0.674;2023-04-25T00:43:40;11.80;99.90
35692;DHT22;26978;44.830;-0.674;2023-04-25T00:46:05;11.80;99.90
35692;DHT22;26978;44.830;-0.674;2023-04-25T00:48:31;11.70;99.90
35692;DHT22;26978;44.830;-0.674;2023-04-25T00:50:58;11.70;99.90
35692;DHT22;26978;44.830;-0.674;2023-04-25T00:53:25;11.70;99.90
35692;DHT22;26978;44.830;-0.674;2023-04-25T00:55:52;11.70;99.90
35692;DHT22;26978;44.830;-0.674;2023-04-25T00:58:18;11.70;99.90
35692;DHT22;26978;44.830;-0.674;2023-04-25T01:00:48;11.70;99.90
35692;DHT22;26978;44.830;-0.674;2023-04-25T01:03:15;11.70;99.90
35692;DHT22;26978;44.830;-0.674;2023-04-25T01:05:42;11.70;99.90
35692;DHT22;26978;44.830;-0.674;2023-04-25T01:08:07;11.80;99.90
35692;DHT22;26978;44.830;-0.674;2023-04-25T01:10:33;11.80;99.90
35692;DHT22;26978;44.830;-0.674;2023-04-25T01:12:59;11.80;99.90
35692;DHT22;26978;44.830;-0.674;2023-04-25T01:15:25;11.80;99.90
35692;DHT22;26978;44.830;-0.674;2023-04-25T01:17:50;11.80;99.90
35692;DHT22;26978;44.830;-0.674;2023-04-25T01:20:16;11.80;99.90
35692;DHT22;26978;44.830;-0.674;2023-04-25T01:22:43;11.80;99.90
35692;DHT22;26978;44.830;-0.674;2023-04-25T01:25:08;11.80;99.90
35692;DHT22;26978;44.830;-0.674;2023-04-25T01:27:36;11.80;99.90
35692;DHT22;26978;44.830;-0.674;2023-04-25T01:30:03;11.80;99.90
35692;DHT22;26978;44.830;-0.674;2023-04-25T01:32:30;11.80;99.90
35692;DHT22;26978;44.830;-0.674;2023-04-25T01:35:04;11.80;99.90
35692;DHT22;26978;44.830;-0.674;2023-04-25T01:37:41;11.80;99.90
35692;DHT22;26978;44.830;-0.674;2023-04-25T01:40:10;11.80;99.90
35692;DHT22;26978;44.830;-0.674;2023-04-25T01:42:41;11.90;99.90
35692;DHT22;26978;44.830;-0.674;2023-04-25T01:45:08;11.90;99.90
35692;DHT22;26978;44.830;-0.674;2023-04-25T01:47:34;11.90;99.90
35692;DHT22;26978;44.830;-0.674;2023-04-25T01:50:01;11.80;99.90
35692;DHT22;26978;44.830;-0.674;2023-04-25T01:52:27;11.90;99.90
35692;DHT22;26978;44.830;-0.674;2023-04-25T01:54:53;11.90;99.90
35692;DHT22;26978;44.830;-0.674;2023-04-25T01:57:19;11.90;99.90
35692;DHT22;26978;44.830;-0.674;2023-04-25T01:59:45;11.90;99.90
35692;DHT22;26978;44.830;-0.674;2023-04-25T02:02:11;11.90;99.90
35692;DHT22;26978;44.830;-0.674;2023-04-25T02:04:37;11.90;99.90
35692;DHT22;26978;44.830;-0.674;2023-04-25T02:07:03;12.00;99.90
35692;DHT22;26978;44.830;-0.674;2023-04-25T02:09:29;12.00;99.90
35692;DHT22;26978;44.830;-0.674;2023-04-25T02:11:55;12.00;99.90
35692;DHT22;26978;44.830;-0.674;2023-04-25T02:14:20;11.90;99.90
35692;DHT22;26978;44.830;-0.674;2023-04-25T02:16:46;11.90;99.90
35692;DHT22;26978;44.830;-0.674;2023-04-25T02:19:12;11.90;99.90
35692;DHT22;26978;44.830;-0.674;2023-04-25T02:21:37;11.90;99.90
35692;DHT22;26978;44.830;-0.674;2023-04-25T02:24:03;11.90;99.90
35692;DHT22;26978;44.830;-0.674;2023-04-25T02:26:29;11.90;99.90
35692;DHT22;26978;44.830;-0.674;2023-04-25T02:28:56;11.90;99.90
35692;DHT22;26978;44.830;-0.674;2023-04-25T02:31:22;12.00;99.90
35692;DHT22;26978;44.830;-0.674;2023-04-25T02:33:48;12.00;99.90
35692;DHT22;26978;44.830;-0.674;2023-04-25T02:36:13;12.00;99.90
35692;DHT22;26978;44.830;-0.674;2023-04-25T02:38:40;12.00;99.90
35692;DHT22;26978;44.830;-0.674;2023-04-25T02:41:06;12.00;99.90
35692;DHT22;26978;44.830;-0.674;2023-04-25T02:43:31;12.00;99.90
35692;DHT22;26978;44.830;-0.674;2023-04-25T02:45:57;12.00;99.90
35692;DHT22;26978;44.830;-0.674;2023-04-25T02:48:23;12.00;99.90
35692;DHT22;26978;44.830;-0.674;2023-04-25T02:50:48;12.00;99.90
35692;DHT22;26978;44.830;-0.674;2023-04-25T02:53:14;12.00;99.90
35692;DHT22;26978;44.830;-0.674;2023-04-25T02:55:40;12.00;99.90
35692;DHT22;26978;44.830;-0.674;2023-04-25T02:58:06;12.00;99.90
35692;DHT22;26978;44.830;-0.674;2023-04-25T03:00:31;12.10;99.90
35692;DHT22;26978;44.830;-0.674;2023-04-25T03:02:57;12.00;99.90
35692;DHT22;26978;44.830;-0.674;2023-04-25T03:05:23;12.10;99.90
35692;DHT22;26978;44.830;-0.674;2023-04-25T03:07:48;12.10;99.90
35692;DHT22;26978;44.830;-0.674;2023-04-25T03:10:14;12.10;99.90
35692;DHT22;26978;44.830;-0.674;2023-04-25T03:12:40;12.00;99.90
35692;DHT22;26978;44.830;-0.674;2023-04-25T03:15:06;12.00;99.90
35692;DHT22;26978;44.830;-0.674;2023-04-25T03:17:31;12.00;99.90
35692;DHT22;26978;44.830;-0.674;2023-04-25T03:19:57;12.00;99.90
35692;DHT22;26978;44.830;-0.674;2023-04-25T03:22:23;12.00;99.90
35692;DHT22;26978;44.830;-0.674;2023-04-25T03:24:50;11.90;99.90
35692;DHT22;26978;44.830;-0.674;2023-04-25T03:27:16;11.90;99.90
35692;DHT22;26978;44.830;-0.674;2023-04-25T03:29:41;11.90;99.90
35692;DHT22;26978;44.830;-0.674;2023-04-25T03:32:07;12.00;99.90
35692;DHT22;26978;44.830;-0.674;2023-04-25T03:34:33;11.90;99.90
35692;DHT22;26978;44.830;-0.674;2023-04-25T03:36:59;11.90;99.90
35692;DHT22;26978;44.830;-0.674;2023-04-25T03:39:25;12.00;99.90
35692;DHT22;26978;44.830;-0.674;2023-04-25T03:41:51;11.90;99.90
35692;DHT22;26978;44.830;-0.674;2023-04-25T03:44:16;12.00;99.90
35692;DHT22;26978;44.830;-0.674;2023-04-25T03:46:45;12.00;99.90
35692;DHT22;26978;44.830;-0.674;2023-04-25T03:49:13;12.00;99.90
35692;DHT22;26978;44.830;-0.674;2023-04-25T03:52:14;11.90;99.90
35692;DHT22;26978;44.830;-0.674;2023-04-25T03:54:53;11.90;99.90
35692;DHT22;26978;44.830;-0.674;2023-04-25T03:57:19;12.00;99.90
35692;DHT22;26978;44.830;-0.674;2023-04-25T03:59:45;12.00;99.90
35692;DHT22;26978;44.830;-0.674;2023-04-25T04:02:17;12.00;99.90
35692;DHT22;26978;44.830;-0.674;2023-04-25T04:04:43;12.00;99.90
35692;DHT22;26978;44.830;-0.674;2023-04-25T04:07:16;12.00;99.90
35692;DHT22;26978;44.830;-0.674;2023-04-25T04:09:42;12.00;99.90
35692;DHT22;26978;44.830;-0.674;2023-04-25T04:12:08;12.00;99.90
35692;DHT22;26978;44.830;-0.674;2023-04-25T04:14:36;11.90;99.90
35692;DHT22;26978;44.830;-0.674;2023-04-25T04:17:01;12.00;99.90
35692;DHT22;26978;44.830;-0.674;2023-04-25T04:19:27;11.90;99.90
35692;DHT22;26978;44.830;-0.674;2023-04-25T04:21:53;12.00;99.90
35692;DHT22;26978;44.830;-0.674;2023-04-25T04:24:18;12.00;99.90
35692;DHT22;26978;44.830;-0.674;2023-04-25T04:26:44;11.90;99.90
35692;DHT22;26978;44.830;-0.674;2023-04-25T04:29:11;11.90;99.90
35692;DHT22;26978;44.830;-0.674;2023-04-25T04:31:36;11.90;99.90
35692;DHT22;26978;44.830;-0.674;2023-04-25T04:34:02;11.90;99.90
35692;DHT22;26978;44.830;-0.674;2023-04-25T04:36:29;11.90;99.90
35692;DHT22;26978;44.830;-0.674;2023-04-25T04:38:55;11.90;99.90
35692;DHT22;26978;44.830;-0.674;2023-04-25T04:41:22;11.90;99.90
35692;DHT22;26978;44.830;-0.674;2023-04-25T04:43:47;11.90;99.90
35692;DHT22;26978;44.830;-0.674;2023-04-25T04:46:13;12.00;99.90
35692;DHT22;26978;44.830;-0.674;2023-04-25T04:48:39;12.00;99.90
35692;DHT22;26978;44.830;-0.674;2023-04-25T04:51:06;12.00;99.90
35692;DHT22;26978;44.830;-0.674;2023-04-25T04:53:32;12.00;99.90
35692;DHT22;26978;44.830;-0.674;2023-04-25T04:55:57;12.00;99.90
35692;DHT22;26978;44.830;-0.674;2023-04-25T04:58:23;12.00;99.90
35692;DHT22;26978;44.830;-0.674;2023-04-25T05:00:49;12.00;99.90
35692;DHT22;26978;44.830;-0.674;2023-04-25T05:03:15;11.90;99.90
35692;DHT22;26978;44.830;-0.674;2023-04-25T05:05:41;11.90;99.90
35692;DHT22;26978;44.830;-0.674;2023-04-25T05:08:07;12.00;99.90
35692;DHT22;26978;44.830;-0.674;2023-04-25T05:10:32;12.00;99.90
35692;DHT22;26978;44.830;-0.674;2023-04-25T05:12:59;12.00;99.90
35692;DHT22;26978;44.830;-0.674;2023-04-25T05:15:25;12.00;99.90
35692;DHT22;26978;44.830;-0.674;2023-04-25T05:17:51;12.00;99.90
35692;DHT22;26978;44.830;-0.674;2023-04-25T05:20:16;12.00;99.90
35692;DHT22;26978;44.830;-0.674;2023-04-25T05:22:44;12.10;99.90
35692;DHT22;26978;44.830;-0.674;2023-04-25T05:25:10;12.10;99.90
35692;DHT22;26978;44.830;-0.674;2023-04-25T05:27:35;12.10;99.90
35692;DHT22;26978;44.830;-0.674;2023-04-25T05:30:01;12.10;99.90
35692;DHT22;26978;44.830;-0.674;2023-04-25T05:32:27;12.10;99.90
35692;DHT22;26978;44.830;-0.674;2023-04-25T05:34:52;12.10;99.90
35692;DHT22;26978;44.830;-0.674;2023-04-25T05:37:18;12.10;99.90
35692;DHT22;26978;44.830;-0.674;2023-04-25T05:39:44;12.20;99.90
35692;DHT22;26978;44.830;-0.674;2023-04-25T05:42:09;12.20;99.90
35692;DHT22;26978;44.830;-0.674;2023-04-25T05:44:35;12.10;99.90
35692;DHT22;26978;44.830;-0.674;2023-04-25T05:47:01;12.20;99.90
35692;DHT22;26978;44.830;-0.674;2023-04-25T05:49:27;12.20;99.90
35692;DHT22;26978;44.830;-0.674;2023-04-25T05:51:52;12.10;99.90
35692;DHT22;26978;44.830;-0.674;2023-04-25T05:54:18;12.20;99.90
35692;DHT22;26978;44.830;-0.674;2023-04-25T05:56:43;12.20;99.90
35692;DHT22;26978;44.830;-0.674;2023-04-25T05:59:09;12.20;99.90
35692;DHT22;26978;44.830;-0.674;2023-04-25T06:01:35;12.10;99.90
35692;DHT22;26978;44.830;-0.674;2023-04-25T06:04:01;12.10;99.90
35692;DHT22;26978;44.830;-0.674;2023-04-25T06:06:26;12.10;99.90
35692;DHT22;26978;44.830;-0.674;2023-04-25T06:08:53;12.10;99.90
35692;DHT22;26978;44.830;-0.674;2023-04-25T06:11:18;12.10;99.90
35692;DHT22;26978;44.830;-0.674;2023-04-25T06:13:44;12.00;99.90
35692;DHT22;26978;44.830;-0.674;2023-04-25T06:16:09;12.10;99.90
35692;DHT22;26978;44.830;-0.674;2023-04-25T06:18:35;12.10;99.90
35692;DHT22;26978;44.830;-0.674;2023-04-25T06:21:01;12.00;99.90
35692;DHT22;26978;44.830;-0.674;2023-04-25T06:23:26;12.10;99.90
35692;DHT22;26978;44.830;-0.674;2023-04-25T06:25:52;12.10;99.90
35692;DHT22;26978;44.830;-0.674;2023-04-25T06:28:18;12.10;99.90
35692;DHT22;26978;44.830;-0.674;2023-04-25T06:30:44;12.10;99.90
35692;DHT22;26978;44.830;-0.674;2023-04-25T06:33:10;12.00;99.90
35692;DHT22;26978;44.830;-0.674;2023-04-25T06:35:36;12.10;99.90
35692;DHT22;26978;44.830;-0.674;2023-04-25T06:38:01;12.20;99.90
35692;DHT22;26978;44.830;-0.674;2023-04-25T06:40:27;12.20;99.90
35692;DHT22;26978;44.830;-0.674;2023-04-25T06:42:52;12.20;99.90
35692;DHT22;26978;44.830;-0.674;2023-04-25T06:45:18;12.20;99.90
35692;DHT22;26978;44.830;-0.674;2023-04-25T06:47:44;12.20;99.90
35692;DHT22;26978;44.830;-0.674;2023-04-25T06:50:09;12.20;99.90
35692;DHT22;26978;44.830;-0.674;2023-04-25T06:52:36;12.30;99.90
35692;DHT22;26978;44.830;-0.674;2023-04-25T06:55:01;12.30;99.90
35692;DHT22;26978;44.830;-0.674;2023-04-25T06:57:28;12.40;99.90
35692;DHT22;26978;44.830;-0.674;2023-04-25T06:59:53;12.50;99.90
35692;DHT22;26978;44.830;-0.674;2023-04-25T07:02:19;12.50;99.90
35692;DHT22;26978;44.830;-0.674;2023-04-25T07:04:46;12.60;99.90
35692;DHT22;26978;44.830;-0.674;2023-04-25T07:07:12;12.60;99.90
35692;DHT22;26978;44.830;-0.674;2023-04-25T07:09:37;12.50;99.90
35692;DHT22;26978;44.830;-0.674;2023-04-25T07:12:03;12.60;99.90
35692;DHT22;26978;44.830;-0.674;2023-04-25T07:14:29;12.60;99.90
35692;DHT22;26978;44.830;-0.674;2023-04-25T07:16:55;12.60;99.90
35692;DHT22;26978;44.830;-0.674;2023-04-25T07:19:22;12.70;99.90
35692;DHT22;26978;44.830;-0.674;2023-04-25T07:21:52;12.70;99.90
35692;DHT22;26978;44.830;-0.674;2023-04-25T07:24:18;12.40;99.90
35692;DHT22;26978;44.830;-0.674;2023-04-25T07:26:43;12.40;99.90
35692;DHT22;26978;44.830;-0.674;2023-04-25T07:29:10;12.50;99.90
35692;DHT22;26978;44.830;-0.674;2023-04-25T07:31:35;12.60;99.90
35692;DHT22;26978;44.830;-0.674;2023-04-25T07:34:01;12.50;99.90
35692;DHT22;26978;44.830;-0.674;2023-04-25T07:36:27;12.40;99.90
35692;DHT22;26978;44.830;-0.674;2023-04-25T07:38:53;12.50;99.90
35692;DHT22;26978;44.830;-0.674;2023-04-25T07:41:18;12.60;99.90
35692;DHT22;26978;44.830;-0.674;2023-04-25T07:43:44;12.70;99.90
35692;DHT22;26978;44.830;-0.674;2023-04-25T07:46:10;12.50;99.90
35692;DHT22;26978;44.830;-0.674;2023-04-25T07:48:36;12.40;99.90
35692;DHT22;26978;44.830;-0.674;2023-04-25T07:51:01;12.30;99.90
35692;DHT22;26978;44.830;-0.674;2023-04-25T07:53:28;12.40;99.90
35692;DHT22;26978;44.830;-0.674;2023-04-25T07:55:53;12.30;99.90
35692;DHT22;26978;44.830;-0.674;2023-04-25T07:58:19;12.50;99.90
35692;DHT22;26978;44.830;-0.674;2023-04-25T08:00:47;12.50;99.90
35692;DHT22;26978;44.830;-0.674;2023-04-25T08:03:15;12.70;99.90
35692;DHT22;26978;44.830;-0.674;2023-04-25T08:05:41;12.90;99.90
35692;DHT22;26978;44.830;-0.674;2023-04-25T08:08:11;13.10;99.90
35692;DHT22;26978;44.830;-0.674;2023-04-25T08:10:36;13.00;99.90
35692;DHT22;26978;44.830;-0.674;2023-04-25T08:13:02;12.80;99.90
35692;DHT22;26978;44.830;-0.674;2023-04-25T08:15:28;12.70;99.90
35692;DHT22;26978;44.830;-0.674;2023-04-25T08:17:53;12.80;99.90
35692;DHT22;26978;44.830;-0.674;2023-04-25T08:20:20;12.60;99.90
35692;DHT22;26978;44.830;-0.674;2023-04-25T08:22:48;12.60;99.90
35692;DHT22;26978;44.830;-0.674;2023-04-25T08:25:14;12.60;99.90
35692;DHT22;26978;44.830;-0.674;2023-04-25T08:27:40;12.70;99.90
35692;DHT22;26978;44.830;-0.674;2023-04-25T08:30:06;12.70;99.90
35692;DHT22;26978;44.830;-0.674;2023-04-25T08:32:33;12.90;99.90
35692;DHT22;26978;44.830;-0.674;2023-04-25T08:34:59;13.00;99.90
35692;DHT22;26978;44.830;-0.674;2023-04-25T08:37:25;13.10;99.90
35692;DHT22;26978;44.830;-0.674;2023-04-25T08:39:51;12.80;99.90
35692;DHT22;26978;44.830;-0.674;2023-04-25T08:42:19;12.70;99.90
35692;DHT22;26978;44.830;-0.674;2023-04-25T08:44:48;12.60;99.90
35692;DHT22;26978;44.830;-0.674;2023-04-25T08:47:14;12.70;99.90
35692;DHT22;26978;44.830;-0.674;2023-04-25T08:49:44;12.80;99.90
35692;DHT22;26978;44.830;-0.674;2023-04-25T08:52:13;13.00;99.90
35692;DHT22;26978;44.830;-0.674;2023-04-25T08:54:43;13.10;99.90
35692;DHT22;26978;44.830;-0.674;2023-04-25T08:57:10;13.30;99.90
35692;DHT22;26978;44.830;-0.674;2023-04-25T08:59:37;13.50;99.90
35692;DHT22;26978;44.830;-0.674;2023-04-25T09:02:04;13.10;99.90
35692;DHT22;26978;44.830;-0.674;2023-04-25T09:04:33;13.40;99.90
35692;DHT22;26978;44.830;-0.674;2023-04-25T09:06:58;13.90;99.90
35692;DHT22;26978;44.830;-0.674;2023-04-25T09:09:24;14.10;99.90
35692;DHT22;26978;44.830;-0.674;2023-04-25T09:11:49;14.00;99.90
35692;DHT22;26978;44.830;-0.674;2023-04-25T09:14:20;13.90;99.90
35692;DHT22;26978;44.830;-0.674;2023-04-25T09:19:22;14.10;99.90
35692;DHT22;26978;44.830;-0.674;2023-04-25T09:21:54;14.40;99.90
35692;DHT22;26978;44.830;-0.674;2023-04-25T09:24:36;14.20;99.90
35692;DHT22;26978;44.830;-0.674;2023-04-25T09:27:10;13.90;99.90
35692;DHT22;26978;44.830;-0.674;2023-04-25T09:29:38;13.60;99.90
35692;DHT22;26978;44.830;-0.674;2023-04-25T09:32:23;13.80;99.90
35692;DHT22;26978;44.830;-0.674;2023-04-25T09:34:51;14.10;99.90
35692;DHT22;26978;44.830;-0.674;2023-04-25T09:37:28;13.90;99.90
35692;DHT22;26978;44.830;-0.674;2023-04-25T09:42:25;14.50;99.90
35692;DHT22;26978;44.830;-0.674;2023-04-25T09:44:56;14.00;99.90
35692;DHT22;26978;44.830;-0.674;2023-04-25T09:47:23;13.60;99.90
35692;DHT22;26978;44.830;-0.674;2023-04-25T09:49:50;14.00;99.90
35692;DHT22;26978;44.830;-0.674;2023-04-25T09:52:21;14.00;99.90
35692;DHT22;26978;44.830;-0.674;2023-04-25T09:54:49;14.10;99.90
35692;DHT22;26978;44.830;-0.674;2023-04-25T09:57:19;13.80;99.90
35692;DHT22;26978;44.830;-0.674;2023-04-25T09:59:48;13.60;99.90
35692;DHT22;26978;44.830;-0.674;2023-04-25T10:02:18;13.80;99.90
35692;DHT22;26978;44.830;-0.674;2023-04-25T10:04:52;13.60;99.90
35692;DHT22;26978;44.830;-0.674;2023-04-25T10:07:26;13.60;99.90
35692;DHT22;26978;44.830;-0.674;2023-04-25T10:10:02;13.40;99.90
35692;DHT22;26978;44.830;-0.674;2023-04-25T10:12:29;13.70;99.90
35692;DHT22;26978;44.830;-0.674;2023-04-25T10:14:58;14.00;99.90
35692;DHT22;26978;44.830;-0.674;2023-04-25T10:17:23;14.10;99.90
35692;DHT22;26978;44.830;-0.674;2023-04-25T10:19:50;14.10;99.90
35692;DHT22;26978;44.830;-0.674;2023-04-25T10:22:36;13.80;99.90
35692;DHT22;26978;44.830;-0.674;2023-04-25T10:25:02;13.30;99.90
35692;DHT22;26978;44.830;-0.674;2023-04-25T10:27:30;13.30;99.90
35692;DHT22;26978;44.830;-0.674;2023-04-25T10:30:16;13.30;99.90
35692;DHT22;26978;44.830;-0.674;2023-04-25T10:32:42;13.70;99.90
35692;DHT22;26978;44.830;-0.674;2023-04-25T10:37:37;14.50;99.90
35692;DHT22;26978;44.830;-0.674;2023-04-25T10:40:10;13.90;99.90
35692;DHT22;26978;44.830;-0.674;2023-04-25T10:42:36;14.10;99.90
35692;DHT22;26978;44.830;-0.674;2023-04-25T10:45:05;13.90;99.90
35692;DHT22;26978;44.830;-0.674;2023-04-25T10:47:43;14.10;99.90
35692;DHT22;26978;44.830;-0.674;2023-04-25T10:50:10;14.40;99.90
35692;DHT22;26978;44.830;-0.674;2023-04-25T10:52:41;14.40;99.90
35692;DHT22;26978;44.830;-0.674;2023-04-25T10:55:07;14.50;99.90
35692;DHT22;26978;44.830;-0.674;2023-04-25T10:57:44;14.70;99.90
35692;DHT22;26978;44.830;-0.674;2023-04-25T11:00:19;14.70;99.90
35692;DHT22;26978;44.830;-0.674;2023-04-25T11:02:48;14.70;99.90
35692;DHT22;26978;44.830;-0.674;2023-04-25T11:05:20;14.30;99.90
35692;DHT22;26978;44.830;-0.674;2023-04-25T11:07:53;14.20;99.90
35692;DHT22;26978;44.830;-0.674;2023-04-25T11:10:25;14.20;99.90
35692;DHT22;26978;44.830;-0.674;2023-04-25T11:12:51;14.00;99.90
35692;DHT22;26978;44.830;-0.674;2023-04-25T11:15:17;14.20;99.90
35692;DHT22;26978;44.830;-0.674;2023-04-25T11:17:42;14.30;99.90
35692;DHT22;26978;44.830;-0.674;2023-04-25T11:20:10;15.10;99.90
35692;DHT22;26978;44.830;-0.674;2023-04-25T11:22:38;15.60;99.90
35692;DHT22;26978;44.830;-0.674;2023-04-25T11:25:07;15.80;99.90
35692;DHT22;26978;44.830;-0.674;2023-04-25T11:27:33;15.60;99.90
35692;DHT22;26978;44.830;-0.674;2023-04-25T11:29:59;16.00;99.90
35692;DHT22;26978;44.830;-0.674;2023-04-25T11:32:24;16.80;99.90
35692;DHT22;26978;44.830;-0.674;2023-04-25T11:34:50;17.40;99.90
35692;DHT22;26978;44.830;-0.674;2023-04-25T11:37:17;17.40;99.90
35692;DHT22;26978;44.830;-0.674;2023-04-25T11:39:44;16.60;99.90
35692;DHT22;26978;44.830;-0.674;2023-04-25T11:42:11;16.50;99.90
35692;DHT22;26978;44.830;-0.674;2023-04-25T11:44:38;16.30;99.90
35692;DHT22;26978;44.830;-0.674;2023-04-25T11:47:05;16.10;99.90
35692;DHT22;26978;44.830;-0.674;2023-04-25T11:49:32;16.20;99.90
35692;DHT22;26978;44.830;-0.674;2023-04-25T11:51:57;16.20;99.90
35692;DHT22;26978;44.830;-0.674;2023-04-25T11:54:23;15.60;99.90
35692;DHT22;26978;44.830;-0.674;2023-04-25T11:56:49;15.60;99.90
35692;DHT22;26978;44.830;-0.674;2023-04-25T11:59:15;15.50;99.90
35692;DHT22;26978;44.830;-0.674;2023-04-25T12:01:48;15.90;99.90
35692;DHT22;26978;44.830;-0.674;2023-04-25T12:04:16;16.00;99.90
35692;DHT22;26978;44.830;-0.674;2023-04-25T12:06:43;16.50;99.90
35692;DHT22;26978;44.830;-0.674;2023-04-25T12:09:12;16.50;99.90
35692;DHT22;26978;44.830;-0.674;2023-04-25T12:11:48;16.20;99.90
35692;DHT22;26978;44.830;-0.674;2023-04-25T12:14:27;15.70;99.90
35692;DHT22;26978;44.830;-0.674;2023-04-25T12:16:58;15.40;99.90
35692;DHT22;26978;44.830;-0.674;2023-04-25T12:19:25;15.30;99.90
35692;DHT22;26978;44.830;-0.674;2023-04-25T12:21:51;15.40;99.90
35692;DHT22;26978;44.830;-0.674;2023-04-25T12:24:21;15.80;99.90
35692;DHT22;26978;44.830;-0.674;2023-04-25T12:26:53;16.30;99.90
35692;DHT22;26978;44.830;-0.674;2023-04-25T12:29:20;16.10;99.90
35692;DHT22;26978;44.830;-0.674;2023-04-25T12:31:46;16.10;99.90
35692;DHT22;26978;44.830;-0.674;2023-04-25T12:34:12;16.10;99.90
35692;DHT22;26978;44.830;-0.674;2023-04-25T12:36:38;16.40;99.90
35692;DHT22;26978;44.830;-0.674;2023-04-25T12:39:04;16.40;99.90
35692;DHT22;26978;44.830;-0.674;2023-04-25T12:41:30;15.90;99.90
35692;DHT22;26978;44.830;-0.674;2023-04-25T12:43:56;16.00;99.90
35692;DHT22;26978;44.830;-0.674;2023-04-25T12:46:22;16.70;99.90
35692;DHT22;26978;44.830;-0.674;2023-04-25T12:48:48;17.20;99.90
35692;DHT22;26978;44.830;-0.674;2023-04-25T12:51:14;17.00;99.90
35692;DHT22;26978;44.830;-0.674;2023-04-25T12:53:41;16.10;99.90
35692;DHT22;26978;44.830;-0.674;2023-04-25T12:56:07;16.00;99.90
35692;DHT22;26978;44.830;-0.674;2023-04-25T12:58:33;16.60;99.90
35692;DHT22;26978;44.830;-0.674;2023-04-25T13:00:59;16.80;99.90
35692;DHT22;26978;44.830;-0.674;2023-04-25T13:03:25;16.80;99.90
35692;DHT22;26978;44.830;-0.674;2023-04-25T13:05:51;17.00;99.90
35692;DHT22;26978;44.830;-0.674;2023-04-25T13:08:18;17.00;99.90
35692;DHT22;26978;44.830;-0.674;2023-04-25T13:10:44;16.10;99.90
35692;DHT22;26978;44.830;-0.674;2023-04-25T13:13:10;16.40;99.90
35692;DHT22;26978;44.830;-0.674;2023-04-25T13:15:35;16.40;99.90
35692;DHT22;26978;44.830;-0.674;2023-04-25T13:18:03;16.80;99.90
35692;DHT22;26978;44.830;-0.674;2023-04-25T13:20:28;16.50;99.90
35692;DHT22;26978;44.830;-0.674;2023-04-25T13:22:54;16.70;99.90
35692;DHT22;26978;44.830;-0.674;2023-04-25T13:25:20;16.70;99.90
35692;DHT22;26978;44.830;-0.674;2023-04-25T13:27:47;16.70;99.90
35692;DHT22;26978;44.830;-0.674;2023-04-25T13:30:13;16.20;99.90
35692;DHT22;26978;44.830;-0.674;2023-04-25T13:32:39;16.40;99.90
35692;DHT22;26978;44.830;-0.674;2023-04-25T13:35:08;16.60;99.90
35692;DHT22;26978;44.830;-0.674;2023-04-25T13:37:34;16.70;99.90
35692;DHT22;26978;44.830;-0.674;2023-04-25T13:40:05;17.10;99.90
35692;DHT22;26978;44.830;-0.674;2023-04-25T13:42:33;17.40;99.90
35692;DHT22;26978;44.830;-0.674;2023-04-25T13:44:59;17.70;99.90
35692;DHT22;26978;44.830;-0.674;2023-04-25T13:47:25;17.90;99.90
35692;DHT22;26978;44.830;-0.674;2023-04-25T13:49:51;17.50;99.90
35692;DHT22;26978;44.830;-0.674;2023-04-25T13:52:17;17.70;99.90
35692;DHT22;26978;44.830;-0.674;2023-04-25T13:54:42;17.90;99.90
35692;DHT22;26978;44.830;-0.674;2023-04-25T13:57:08;18.70;99.90
35692;DHT22;26978;44.830;-0.674;2023-04-25T13:59:34;18.60;99.90
35692;DHT22;26978;44.830;-0.674;2023-04-25T14:01:59;19.20;99.90
35692;DHT22;26978;44.830;-0.674;2023-04-25T14:04:25;19.50;99.90
35692;DHT22;26978;44.830;-0.674;2023-04-25T14:06:51;19.30;99.90
35692;DHT22;26978;44.830;-0.674;2023-04-25T14:09:18;18.60;99.90
35692;DHT22;26978;44.830;-0.674;2023-04-25T14:11:45;19.00;99.90
35692;DHT22;26978;44.830;-0.674;2023-04-25T14:14:11;18.00;99.90
35692;DHT22;26978;44.830;-0.674;2023-04-25T14:16:37;18.00;99.90
35692;DHT22;26978;44.830;-0.674;2023-04-25T14:19:03;18.00;99.90
35692;DHT22;26978;44.830;-0.674;2023-04-25T14:21:29;17.80;99.90
35692;DHT22;26978;44.830;-0.674;2023-04-25T14:23:57;17.00;99.90
35692;DHT22;26978;44.830;-0.674;2023-04-25T14:26:23;17.50;99.90
35692;DHT22;26978;44.830;-0.674;2023-04-25T14:28:50;17.50;99.90
35692;DHT22;26978;44.830;-0.674;2023-04-25T14:31:16;17.50;99.90
35692;DHT22;26978;44.830;-0.674;2023-04-25T14:33:42;16.40;99.90
35692;DHT22;26978;44.830;-0.674;2023-04-25T14:36:08;16.10;99.90
35692;DHT22;26978;44.830;-0.674;2023-04-25T14:38:34;16.30;99.90
35692;DHT22;26978;44.830;-0.674;2023-04-25T14:41:00;16.70;99.90
35692;DHT22;26978;44.830;-0.674;2023-04-25T14:43:25;16.90;99.90
35692;DHT22;26978;44.830;-0.674;2023-04-25T14:45:51;16.90;99.90
35692;DHT22;26978;44.830;-0.674;2023-04-25T14:48:18;16.50;99.90
35692;DHT22;26978;44.830;-0.674;2023-04-25T14:50:45;16.70;99.90
35692;DHT22;26978;44.830;-0.674;2023-04-25T14:53:11;16.50;99.90
35692;DHT22;26978;44.830;-0.674;2023-04-25T14:55:37;16.30;99.90
35692;DHT22;26978;44.830;-0.674;2023-04-25T14:58:03;16.10;99.90
35692;DHT22;26978;44.830;-0.674;2023-04-25T15:00:29;16.10;99.90
35692;DHT22;26978;44.830;-0.674;2023-04-25T15:02:56;15.80;99.90
35692;DHT22;26978;44.830;-0.674;2023-04-25T15:05:22;15.70;99.90
35692;DHT22;26978;44.830;-0.674;2023-04-25T15:07:48;15.90;99.90
35692;DHT22;26978;44.830;-0.674;2023-04-25T15:10:13;16.30;99.90
35692;DHT22;26978;44.830;-0.674;2023-04-25T15:12:44;16.60;99.90
35692;DHT22;26978;44.830;-0.674;2023-04-25T15:15:11;16.90;99.90
35692;DHT22;26978;44.830;-0.674;2023-04-25T15:17:43;17.10;99.90
35692;DHT22;26978;44.830;-0.674;2023-04-25T15:20:11;16.80;99.90
35692;DHT22;26978;44.830;-0.674;2023-04-25T15:22:42;16.60;99.90